createdAt,value
2022-07-26T00:00:58.901Z,21.26
2022-07-26T00:02:03.230Z,21.32
2022-07-26T00:03:08.590Z,21.38
2022-07-26T00:04:12.843Z,21.44
2022-07-26T00:05:18.220Z,21.52
2022-07-26T00:06:23.808Z,21.44
2022-07-26T00:07:28.421Z,21.40
2022-07-26T00:08:33.913Z,21.31
2022-07-26T00:09:39.485Z,21.31
2022-07-26T00:10:49.024Z,21.32
2022-07-26T00:11:55.638Z,21.39
2022-07-26T00:13:00.083Z,21.39
2022-07-26T00:14:07.261Z,21.34
2022-07-26T00:15:15.126Z,21.33
2022-07-26T00:16:19.766Z,21.24
2022-07-26T00:17:25.092Z,21.25
2022-07-26T00:18:28.748Z,21.28
2022-07-26T00:19:34.102Z,21.22
2022-07-26T00:20:38.998Z,21.28
2022-07-26T00:21:42.604Z,21.21
2022-07-26T00:22:45.413Z,21.15
2022-07-26T00:23:51.351Z,21.17
2022-07-26T00:24:57.749Z,21.13
2022-07-26T00:26:04.987Z,21.05
2022-07-26T00:27:10.425Z,20.93
2022-07-26T00:28:14.430Z,20.78
2022-07-26T00:29:18.627Z,20.71
2022-07-26T00:30:25.479Z,20.71
2022-07-26T00:31:29.422Z,20.75
2022-07-26T00:32:36.275Z,20.76
2022-07-26T00:33:40.795Z,20.76
2022-07-26T00:34:44.608Z,20.77
2022-07-26T00:35:48.803Z,20.74
2022-07-26T00:36:52.009Z,20.80
2022-07-26T00:37:58.738Z,20.85
2022-07-26T00:39:03.164Z,20.81
2022-07-26T00:40:09.049Z,20.88
2022-07-26T00:41:12.958Z,20.83
2022-07-26T00:42:18.021Z,20.78
2022-07-26T00:43:21.641Z,20.77
2022-07-26T00:44:25.617Z,20.82
2022-07-26T00:45:29.239Z,20.82
2022-07-26T00:46:36.899Z,20.68
2022-07-26T00:47:41.459Z,20.57
2022-07-26T00:48:45.971Z,20.61
2022-07-26T00:49:50.881Z,20.71
2022-07-26T00:50:59.250Z,20.67
2022-07-26T00:52:03.755Z,20.69
2022-07-26T00:53:10.683Z,20.75
2022-07-26T00:54:15.279Z,20.75
2022-07-26T00:55:19.654Z,20.77
2022-07-26T00:56:23.351Z,20.80
2022-07-26T00:57:28.016Z,20.79
2022-07-26T00:58:33.581Z,20.84
2022-07-26T00:59:37.399Z,20.80
2022-07-26T01:00:43.046Z,20.70
2022-07-26T01:01:48.016Z,20.73
2022-07-26T01:27:12.514Z,20.32
2022-07-26T01:28:19.499Z,20.26
2022-07-26T01:29:22.190Z,20.29
2022-07-26T01:30:29.276Z,20.31
2022-07-26T01:31:32.806Z,20.31
2022-07-26T01:32:38.772Z,20.32
2022-07-26T01:33:43.446Z,20.30
2022-07-26T01:34:47.788Z,20.29
2022-07-26T01:35:52.424Z,20.39
2022-07-26T01:38:09.473Z,20.50
2022-07-26T01:39:12.483Z,20.34
2022-07-26T01:40:16.273Z,20.31
2022-07-26T01:41:37.756Z,20.34
2022-07-26T01:42:29.612Z,20.42
2022-07-26T01:43:32.650Z,20.44
2022-07-26T01:44:35.697Z,20.34
2022-07-26T01:45:39.166Z,20.24
2022-07-26T01:46:42.945Z,20.19
2022-07-26T01:47:48.234Z,20.12
2022-07-26T01:48:52.175Z,20.08
2022-07-26T01:49:55.342Z,20.08
2022-07-26T01:51:04.229Z,20.09
2022-07-26T01:52:07.715Z,20.06
2022-07-26T01:53:12.683Z,20.05
2022-07-26T01:54:16.045Z,20.03
2022-07-26T01:55:21.568Z,19.98
2022-07-26T01:56:26.853Z,20.05
2022-07-26T01:57:32.760Z,20.01
2022-07-26T01:58:36.143Z,20.02
2022-07-26T01:59:39.660Z,20.02
2022-07-26T02:00:44.695Z,19.91
2022-07-26T02:01:51.229Z,19.78
2022-07-26T02:02:55.096Z,19.76
2022-07-26T02:04:02.337Z,19.74
2022-07-26T02:05:06.795Z,19.79
2022-07-26T02:06:11.099Z,19.85
2022-07-26T02:07:15.397Z,19.85
2022-07-26T02:08:18.875Z,19.94
2022-07-26T02:09:27.875Z,19.97
2022-07-26T02:10:49.077Z,19.99
2022-07-26T02:11:54.052Z,19.95
2022-07-26T02:12:57.623Z,19.92
2022-07-26T02:14:01.278Z,19.91
2022-07-26T02:15:09.757Z,19.97
2022-07-26T02:16:19.354Z,19.95
2022-07-26T02:17:24.672Z,19.92
2022-07-26T02:18:30.807Z,19.92
2022-07-26T02:19:36.198Z,19.88
2022-07-26T02:20:41.996Z,19.84
2022-07-26T02:21:46.580Z,19.85
2022-07-26T02:22:50.318Z,19.81
2022-07-26T02:23:54.914Z,19.94
2022-07-26T02:25:04.773Z,19.91
2022-07-26T02:26:05.931Z,19.98
2022-07-26T02:27:10.131Z,20.00
2022-07-26T02:28:13.951Z,20.06
2022-07-26T02:29:17.982Z,19.96
2022-07-26T02:30:26.184Z,19.93
2022-07-26T02:31:32.386Z,19.82
2022-07-26T02:32:39.410Z,19.85
2022-07-26T02:33:43.228Z,19.92
2022-07-26T02:34:55.800Z,19.97
2022-07-26T02:35:59.173Z,20.09
2022-07-26T02:37:06.360Z,20.10
2022-07-26T02:38:12.614Z,20.10
2022-07-26T02:39:16.890Z,20.14
2022-07-26T02:40:24.723Z,20.16
2022-07-26T02:41:31.457Z,20.14
2022-07-26T02:42:35.565Z,20.21
2022-07-26T02:43:39.262Z,20.17
2022-07-26T02:44:41.881Z,20.24
2022-07-26T02:45:44.568Z,20.21
2022-07-26T02:46:51.497Z,20.16
2022-07-26T02:47:56.126Z,20.25
2022-07-26T02:49:05.380Z,20.31
2022-07-26T02:50:12.118Z,20.30
2022-07-26T02:51:15.635Z,20.36
2022-07-26T02:52:21.121Z,20.23
2022-07-26T02:53:24.802Z,20.26
2022-07-26T02:54:34.629Z,20.29
2022-07-26T02:55:39.702Z,20.32
2022-07-26T02:56:45.340Z,20.33
2022-07-26T02:57:49.112Z,20.44
2022-07-26T02:58:54.500Z,20.45
2022-07-26T02:59:58.950Z,20.50
2022-07-26T03:01:03.644Z,20.57
2022-07-26T03:02:09.254Z,20.67
2022-07-26T03:03:14.521Z,20.69
2022-07-26T03:04:18.581Z,20.69
2022-07-26T03:05:22.843Z,20.86
2022-07-26T03:06:27.750Z,21.11
2022-07-26T03:08:42.273Z,21.43
2022-07-26T03:09:45.713Z,21.37
2022-07-26T03:10:48.447Z,21.22
2022-07-26T03:11:52.376Z,21.29
2022-07-26T03:12:59.491Z,21.30
2022-07-26T03:14:02.734Z,21.22
2022-07-26T03:15:09.917Z,21.31
2022-07-26T03:16:17.962Z,21.24
2022-07-26T03:17:19.499Z,21.12
2022-07-26T03:18:29.734Z,21.31
2022-07-26T03:19:34.278Z,21.27
2022-07-26T03:20:38.067Z,21.24
2022-07-26T03:21:40.533Z,21.11
2022-07-26T03:22:47.744Z,21.07
2022-07-26T03:23:51.295Z,20.92
2022-07-26T03:24:54.624Z,20.97
2022-07-26T03:25:59.193Z,21.11
2022-07-26T03:27:06.506Z,21.38
2022-07-26T03:28:10.435Z,21.50
2022-07-26T03:29:14.079Z,21.34
2022-07-26T03:30:24.531Z,21.16
2022-07-26T03:31:30.984Z,21.11
2022-07-26T03:32:35.977Z,21.19
2022-07-26T03:33:41.640Z,21.25
2022-07-26T03:34:49.150Z,21.17
2022-07-26T03:36:00.333Z,21.06
2022-07-26T03:37:08.190Z,21.09
2022-07-26T03:38:12.716Z,20.98
2022-07-26T03:39:16.115Z,20.90
2022-07-26T03:40:21.392Z,20.94
2022-07-26T03:41:25.289Z,21.01
2022-07-26T03:42:29.772Z,20.96
2022-07-26T03:43:39.248Z,20.99
2022-07-26T03:44:43.046Z,21.06
2022-07-26T03:45:46.535Z,21.02
2022-07-26T03:46:50.339Z,21.10
2022-07-26T03:47:53.732Z,20.91
2022-07-26T03:48:57.241Z,20.82
2022-07-26T03:50:01.266Z,20.93
2022-07-26T03:52:16.869Z,21.23
2022-07-26T03:53:20.449Z,21.19
2022-07-26T03:54:27.946Z,21.26
2022-07-26T03:55:51.123Z,21.30
2022-07-26T03:56:55.198Z,21.39
2022-07-26T03:57:58.737Z,21.41
2022-07-26T03:59:10.562Z,21.44
2022-07-26T04:00:18.489Z,21.33
2022-07-26T04:01:23.772Z,21.44
2022-07-26T04:02:27.263Z,21.39
2022-07-26T04:03:31.268Z,21.53
2022-07-26T04:04:35.506Z,21.45
2022-07-26T04:05:39.318Z,21.35
2022-07-26T04:06:47.174Z,21.53
2022-07-26T04:07:53.084Z,21.59
2022-07-26T04:08:56.816Z,21.46
2022-07-26T04:10:01.578Z,21.36
2022-07-26T04:11:04.867Z,21.44
2022-07-26T04:12:09.568Z,21.40
2022-07-26T04:13:13.081Z,21.43
2022-07-26T04:14:18.500Z,21.32
2022-07-26T04:15:25.411Z,21.44
2022-07-26T04:16:40.104Z,21.29
2022-07-26T04:17:44.256Z,21.25
2022-07-26T04:18:46.883Z,21.27
2022-07-26T04:19:51.553Z,21.34
2022-07-26T04:20:54.292Z,21.40
2022-07-26T04:21:57.689Z,21.60
2022-07-26T04:23:01.551Z,21.62
2022-07-26T04:24:06.732Z,21.60
2022-07-26T04:25:12.337Z,21.74
2022-07-26T04:26:15.787Z,21.80
2022-07-26T04:27:19.289Z,21.95
2022-07-26T04:28:24.050Z,22.08
2022-07-26T04:29:30.743Z,22.70
2022-07-26T04:30:35.789Z,24.67
2022-07-26T04:31:42.763Z,26.40
2022-07-26T04:32:49.711Z,27.41
2022-07-26T04:33:53.204Z,27.47
2022-07-26T04:34:59.863Z,27.60
2022-07-26T04:36:04.562Z,28.40
2022-07-26T04:37:11.265Z,29.68
2022-07-26T04:38:15.369Z,31.11
2022-07-26T04:39:22.300Z,31.63
2022-07-26T04:40:28.546Z,32.50
2022-07-26T04:41:39.361Z,32.89
2022-07-26T04:42:43.005Z,33.47
2022-07-26T04:43:50.049Z,34.15
2022-07-26T04:44:53.710Z,34.64
2022-07-26T04:47:13.870Z,34.35
2022-07-26T04:48:18.046Z,34.39
2022-07-26T04:49:25.118Z,34.51
2022-07-26T04:50:35.180Z,34.66
2022-07-26T04:51:40.843Z,35.02
2022-07-26T04:52:44.278Z,35.29
2022-07-26T04:53:47.744Z,35.58
2022-07-26T04:54:51.107Z,35.95
2022-07-26T04:55:54.793Z,35.88
2022-07-26T04:57:01.192Z,36.00
2022-07-26T04:58:05.842Z,36.23
2022-07-26T04:59:09.660Z,36.16
2022-07-26T05:00:21.702Z,36.66
2022-07-26T05:01:24.691Z,36.97
2022-07-26T05:02:28.431Z,37.02
2022-07-26T05:03:31.966Z,36.74
2022-07-26T05:04:37.656Z,36.60
2022-07-26T05:05:41.196Z,36.73
2022-07-26T05:06:44.743Z,36.43
2022-07-26T05:07:54.246Z,35.90
2022-07-26T05:08:58.575Z,36.08
2022-07-26T05:10:02.079Z,35.64
2022-07-26T05:11:04.979Z,35.88
2022-07-26T05:12:10.484Z,36.39
2022-07-26T05:13:23.154Z,37.05
2022-07-26T05:14:24.944Z,36.76
2022-07-26T05:15:35.018Z,36.43
2022-07-26T05:16:35.218Z,36.96
2022-07-26T05:17:41.453Z,37.10
2022-07-26T05:18:45.729Z,36.78
2022-07-26T05:19:54.271Z,36.64
2022-07-26T05:21:01.280Z,36.75
2022-07-26T05:22:04.934Z,36.72
2022-07-26T05:23:08.108Z,36.17
2022-07-26T05:24:12.132Z,36.17
2022-07-26T05:25:14.926Z,37.26
2022-07-26T05:26:19.513Z,37.27
2022-07-26T05:27:24.557Z,37.36
2022-07-26T05:28:28.980Z,37.59
2022-07-26T05:29:33.080Z,37.18
2022-07-26T05:30:40.599Z,37.39
2022-07-26T05:31:49.149Z,38.44
2022-07-26T05:32:53.909Z,39.29
2022-07-26T05:33:58.846Z,39.03
2022-07-26T05:35:03.397Z,38.88
2022-07-26T05:36:07.255Z,39.12
2022-07-26T05:37:10.690Z,38.65
2022-07-26T05:38:14.071Z,37.97
2022-07-26T05:39:17.839Z,38.04
2022-07-26T05:40:21.647Z,37.99
2022-07-26T05:41:26.204Z,37.98
2022-07-26T05:42:31.064Z,37.62
2022-07-26T05:43:41.599Z,38.58
2022-07-26T05:44:44.500Z,39.55
2022-07-26T05:45:49.282Z,39.21
2022-07-26T05:46:53.091Z,38.76
2022-07-26T05:48:01.099Z,38.67
2022-07-26T05:49:07.284Z,38.38
2022-07-26T05:50:11.323Z,38.82
2022-07-26T05:51:14.983Z,38.72
2022-07-26T05:52:18.597Z,38.45
2022-07-26T05:53:22.615Z,39.13
2022-07-26T05:54:26.039Z,38.68
2022-07-26T05:55:29.099Z,38.62
2022-07-26T05:56:36.194Z,39.49
2022-07-26T05:57:42.797Z,39.52
2022-07-26T05:58:50.050Z,40.07
2022-07-26T05:59:53.624Z,39.60
2022-07-26T06:00:58.295Z,39.90
2022-07-26T06:02:02.010Z,39.62
2022-07-26T06:04:19.633Z,39.64
2022-07-26T06:05:24.320Z,39.17
2022-07-26T06:06:28.770Z,38.96
2022-07-26T06:07:31.401Z,39.54
2022-07-26T06:08:36.223Z,40.16
2022-07-26T06:09:40.672Z,40.37
2022-07-26T06:10:46.780Z,40.39
2022-07-26T06:11:50.292Z,40.30
2022-07-26T06:12:53.626Z,39.09
2022-07-26T06:14:00.264Z,38.33
2022-07-26T06:15:15.709Z,36.16
2022-07-26T06:16:12.883Z,33.58
2022-07-26T06:17:16.605Z,33.47
2022-07-26T06:18:21.140Z,33.63
2022-07-26T06:19:24.785Z,35.37
2022-07-26T06:20:35.029Z,37.04
2022-07-26T06:21:38.964Z,38.83
2022-07-26T06:22:41.771Z,37.20
2022-07-26T06:23:45.765Z,34.63
2022-07-26T06:24:52.443Z,32.81
2022-07-26T06:25:56.956Z,33.89
2022-07-26T06:28:13.154Z,30.93
2022-07-26T06:29:16.720Z,29.91
2022-07-26T06:30:21.311Z,32.28
2022-07-26T06:31:26.286Z,34.95
2022-07-26T06:32:30.529Z,33.07
2022-07-26T06:33:34.685Z,33.05
2022-07-26T06:34:40.057Z,35.17
2022-07-26T06:35:43.588Z,36.29
2022-07-26T06:36:47.473Z,36.63
2022-07-26T06:37:52.719Z,35.74
2022-07-26T06:38:56.353Z,33.44
2022-07-26T06:39:59.864Z,31.76
2022-07-26T06:41:08.224Z,32.66
2022-07-26T06:42:11.706Z,33.70
2022-07-26T06:43:17.998Z,33.44
2022-07-26T06:44:20.769Z,35.17
2022-07-26T06:45:24.437Z,34.45
2022-07-26T06:46:29.075Z,32.93
2022-07-26T06:47:33.058Z,35.10
2022-07-26T06:48:36.145Z,37.35
2022-07-26T06:49:41.049Z,36.81
2022-07-26T06:50:45.874Z,37.45
2022-07-26T06:51:49.374Z,34.56
2022-07-26T06:52:53.052Z,32.65
2022-07-26T06:54:00.981Z,34.64
2022-07-26T06:55:06.619Z,37.37
2022-07-26T06:56:09.553Z,38.33
2022-07-26T06:57:13.595Z,38.29
2022-07-26T06:58:17.812Z,35.82
2022-07-26T06:59:21.431Z,33.49
2022-07-26T07:00:25.174Z,32.75
2022-07-26T07:01:58.611Z,32.35
2022-07-26T07:02:37.543Z,31.47
2022-07-26T07:03:40.604Z,31.15
2022-07-26T07:04:46.497Z,31.73
2022-07-26T07:05:52.382Z,30.69
2022-07-26T07:06:58.116Z,32.78
2022-07-26T07:08:07.571Z,35.32
2022-07-26T07:09:11.255Z,35.27
2022-07-26T07:10:17.577Z,35.20
2022-07-26T07:11:24.752Z,35.63
2022-07-26T07:12:30.962Z,34.46
2022-07-26T07:13:33.741Z,32.96
2022-07-26T07:14:37.920Z,35.40
2022-07-26T07:15:40.885Z,37.25
2022-07-26T07:16:52.942Z,38.96
2022-07-26T07:17:55.601Z,38.70
2022-07-26T07:18:58.527Z,38.56
2022-07-26T07:20:05.135Z,39.64
2022-07-26T07:21:08.054Z,40.43
2022-07-26T07:22:15.624Z,40.27
2022-07-26T07:23:22.981Z,40.47
2022-07-26T07:24:25.640Z,39.87
2022-07-26T07:25:30.788Z,39.97
2022-07-26T07:26:36.816Z,40.08
2022-07-26T07:27:40.500Z,36.79
2022-07-26T07:28:44.037Z,35.01
2022-07-26T07:29:49.598Z,33.82
2022-07-26T07:30:54.572Z,32.45
2022-07-26T07:31:58.309Z,31.45
2022-07-26T07:33:03.547Z,33.23
2022-07-26T07:34:08.605Z,32.13
2022-07-26T07:35:12.935Z,30.99
2022-07-26T07:36:23.949Z,32.53
2022-07-26T07:37:26.876Z,35.51
2022-07-26T07:38:33.778Z,36.08
2022-07-26T07:39:39.424Z,35.51
2022-07-26T07:40:44.908Z,36.47
2022-07-26T07:41:49.636Z,35.54
2022-07-26T07:42:58.360Z,35.63
2022-07-26T07:44:02.229Z,36.63
2022-07-26T07:45:09.110Z,37.37
2022-07-26T07:46:15.146Z,37.24
2022-07-26T07:47:19.208Z,37.44
2022-07-26T07:48:24.628Z,37.51
2022-07-26T07:49:29.308Z,37.77
2022-07-26T07:50:35.241Z,36.59
2022-07-26T07:51:40.741Z,37.03
2022-07-26T07:52:46.479Z,36.54
2022-07-26T07:55:36.590Z,34.70
2022-07-26T07:56:09.128Z,33.13
2022-07-26T07:57:13.661Z,32.93
2022-07-26T07:58:18.981Z,34.55
2022-07-26T07:59:26.878Z,35.87
2022-07-26T08:00:32.101Z,36.76
2022-07-26T08:01:39.526Z,36.99
2022-07-26T08:02:48.523Z,35.71
2022-07-26T08:03:54.914Z,35.35
2022-07-26T08:05:03.089Z,35.03
2022-07-26T08:06:05.786Z,33.51
2022-07-26T08:07:09.607Z,32.89
2022-07-26T08:08:13.357Z,33.48
2022-07-26T08:09:18.227Z,32.69
2022-07-26T08:10:21.903Z,31.51
2022-07-26T08:11:25.229Z,30.77
2022-07-26T08:12:29.752Z,30.62
2022-07-26T08:13:34.087Z,31.48
2022-07-26T08:14:37.697Z,31.75
2022-07-26T08:15:49.986Z,32.26
2022-07-26T08:16:55.188Z,32.40
2022-07-26T08:17:57.723Z,32.92
2022-07-26T08:19:03.172Z,33.39
2022-07-26T08:20:08.925Z,33.57
2022-07-26T08:21:15.433Z,33.81
2022-07-26T08:22:19.321Z,34.41
2022-07-26T08:23:32.006Z,34.32
2022-07-26T08:24:35.769Z,34.33
2022-07-26T08:25:50.076Z,33.95
2022-07-26T08:26:45.388Z,33.16
2022-07-26T08:28:03.291Z,32.91
2022-07-26T08:28:58.376Z,32.87
2022-07-26T08:29:59.041Z,32.24
2022-07-26T08:31:03.233Z,31.70
2022-07-26T08:32:07.612Z,31.60
2022-07-26T08:33:11.742Z,31.62
2022-07-26T08:34:17.070Z,32.88
2022-07-26T08:35:22.782Z,33.23
2022-07-26T08:36:32.219Z,34.02
2022-07-26T08:37:32.504Z,33.50
2022-07-26T08:38:38.494Z,32.64
2022-07-26T08:40:00.037Z,32.22
2022-07-26T08:41:03.889Z,31.93
2022-07-26T08:42:22.486Z,31.45
2022-07-26T08:43:25.279Z,30.91
2022-07-26T08:44:29.173Z,30.47
2022-07-26T08:45:32.950Z,30.51
2022-07-26T08:46:37.694Z,30.47
2022-07-26T08:47:55.388Z,31.40
2022-07-26T08:48:46.163Z,32.30
2022-07-26T08:49:51.112Z,33.14
2022-07-26T08:50:57.701Z,33.47
2022-07-26T08:52:02.053Z,33.67
2022-07-26T08:53:09.009Z,33.50
2022-07-26T08:54:16.137Z,33.33
2022-07-26T08:55:21.188Z,33.04
2022-07-26T08:56:29.067Z,33.23
2022-07-26T08:57:33.506Z,33.78
2022-07-26T08:58:37.428Z,34.22
2022-07-26T08:59:40.830Z,34.45
2022-07-26T09:00:47.581Z,33.79
2022-07-26T09:01:55.500Z,33.48
2022-07-26T09:03:03.379Z,33.96
2022-07-26T09:04:31.854Z,33.37
2022-07-26T09:05:32.615Z,33.35
2022-07-26T09:06:37.116Z,32.04
2022-07-26T09:07:44.345Z,31.92
2022-07-26T09:08:50.488Z,32.55
2022-07-26T09:10:01.018Z,32.56
2022-07-26T09:12:29.747Z,33.53
2022-07-26T09:13:53.090Z,33.24
2022-07-26T09:14:58.848Z,33.40
2022-07-26T09:16:12.567Z,33.02
2022-07-26T09:17:22.689Z,33.40
2022-07-26T09:18:28.546Z,33.88
2022-07-26T09:19:30.966Z,34.18
2022-07-26T09:20:35.189Z,33.96
2022-07-26T09:21:39.639Z,34.34
2022-07-26T09:23:01.454Z,34.10
2022-07-26T09:24:08.824Z,33.47
2022-07-26T09:25:25.169Z,33.69
2022-07-26T09:26:29.025Z,34.12
2022-07-26T09:27:36.363Z,33.18
2022-07-26T09:28:45.036Z,33.67
2022-07-26T09:29:53.376Z,33.24
2022-07-26T09:31:04.243Z,32.27
2022-07-26T09:32:17.709Z,32.79
2022-07-26T09:33:21.804Z,33.11
2022-07-26T09:34:27.784Z,34.09
2022-07-26T09:35:52.315Z,34.19
2022-07-26T09:36:54.414Z,34.16
2022-07-26T09:37:59.327Z,33.63
2022-07-26T09:39:04.832Z,32.95
2022-07-26T09:40:14.733Z,32.16
2022-07-26T09:41:25.040Z,31.34
2022-07-26T09:42:30.220Z,30.81
2022-07-26T09:43:39.691Z,31.06
2022-07-26T09:44:47.856Z,31.92
2022-07-26T09:45:53.846Z,32.61
2022-07-26T09:47:01.605Z,32.33
2022-07-26T09:48:06.071Z,32.38
2022-07-26T09:49:21.728Z,32.52
2022-07-26T09:50:32.679Z,32.56
2022-07-26T09:51:49.957Z,32.98
2022-07-26T09:53:06.461Z,33.48
2022-07-26T09:54:14.161Z,33.79
2022-07-26T09:55:19.154Z,33.89
2022-07-26T09:56:22.045Z,34.07
2022-07-26T09:57:25.292Z,33.38
2022-07-26T09:58:31.785Z,32.83
2022-07-26T09:59:43.084Z,32.09
2022-07-26T10:00:50.040Z,31.53
2022-07-26T10:01:54.167Z,30.92
2022-07-26T10:03:00.444Z,30.43
2022-07-26T10:05:18.935Z,30.16
2022-07-26T10:06:28.555Z,30.41
2022-07-26T10:07:29.754Z,31.32
2022-07-26T10:08:33.518Z,31.79
2022-07-26T10:09:53.258Z,31.96
2022-07-26T10:11:09.895Z,32.48
2022-07-26T10:12:16.931Z,32.69
2022-07-26T10:13:23.684Z,32.67
2022-07-26T10:14:46.683Z,32.98
2022-07-26T10:15:51.638Z,33.00
2022-07-26T10:16:56.686Z,33.04
2022-07-26T10:17:59.829Z,32.72
2022-07-26T10:19:06.983Z,32.80
2022-07-26T10:20:37.107Z,32.77
2022-07-26T10:21:50.641Z,32.71
2022-07-26T10:22:55.519Z,32.43
2022-07-26T10:24:04.158Z,32.62
2022-07-26T10:25:20.695Z,32.46
2022-07-26T10:26:36.642Z,32.59
2022-07-26T10:27:52.369Z,32.81
2022-07-26T10:28:55.815Z,33.05
2022-07-26T10:30:19.053Z,33.58
2022-07-26T10:31:30.654Z,33.32
2022-07-26T10:32:36.090Z,33.38
2022-07-26T10:33:44.904Z,33.50
2022-07-26T10:34:48.325Z,32.84
2022-07-26T10:35:51.276Z,31.92
2022-07-26T10:37:08.885Z,31.27
2022-07-26T10:38:26.521Z,31.10
2022-07-26T10:39:32.220Z,30.73
2022-07-26T10:40:38.572Z,30.65
2022-07-26T10:41:46.265Z,30.82
2022-07-26T10:42:51.344Z,31.37
2022-07-26T10:44:09.687Z,31.72
2022-07-26T10:45:22.554Z,32.15
2022-07-26T10:46:30.588Z,32.42
2022-07-26T10:47:35.469Z,32.07
2022-07-26T10:49:04.311Z,31.60
2022-07-26T10:50:12.909Z,31.23
2022-07-26T10:52:36.649Z,31.83
2022-07-26T10:53:41.620Z,31.91
2022-07-26T10:55:08.294Z,32.27
2022-07-26T10:56:16.289Z,32.37
2022-07-26T10:57:21.073Z,32.34
2022-07-26T10:58:27.072Z,32.16
2022-07-26T10:59:54.682Z,31.94
2022-07-26T11:00:45.850Z,31.83
2022-07-26T11:01:50.017Z,31.52
2022-07-26T11:02:58.247Z,31.64
2022-07-26T11:04:01.764Z,31.84
2022-07-26T11:05:16.669Z,31.78
2022-07-26T11:06:22.196Z,31.93
2022-07-26T11:07:26.264Z,31.81
2022-07-26T11:08:32.548Z,31.73
2022-07-26T11:09:37.157Z,31.62
2022-07-26T11:10:47.648Z,31.74
2022-07-26T11:11:51.951Z,32.01
2022-07-26T11:13:09.604Z,31.89
2022-07-26T11:14:16.879Z,32.18
2022-07-26T11:15:26.021Z,32.40
2022-07-26T11:16:43.239Z,32.38
2022-07-26T11:17:47.124Z,32.70
2022-07-26T11:18:51.511Z,32.73
2022-07-26T11:19:57.428Z,32.48
2022-07-26T11:21:13.826Z,32.17
2022-07-26T11:22:21.381Z,31.69
2022-07-26T11:23:30.936Z,31.54
2022-07-26T11:24:39.530Z,31.61
2022-07-26T11:25:43.567Z,31.70
2022-07-26T11:26:47.567Z,31.83
2022-07-26T11:28:07.364Z,31.50
2022-07-26T11:29:17.512Z,31.67
2022-07-26T11:30:19.553Z,31.70
2022-07-26T11:32:49.665Z,31.75
2022-07-26T11:33:54.357Z,31.52
2022-07-26T11:34:59.559Z,31.29
2022-07-26T11:36:12.204Z,31.12
2022-07-26T11:37:16.175Z,31.16
2022-07-26T11:38:25.102Z,31.45
2022-07-26T11:39:34.660Z,31.73
2022-07-26T11:40:47.613Z,31.74
2022-07-26T11:43:08.148Z,32.16
2022-07-26T11:44:21.321Z,32.05
2022-07-26T11:45:31.487Z,32.04
2022-07-26T11:46:45.027Z,31.81
2022-07-26T11:47:48.916Z,31.38
2022-07-26T11:48:57.066Z,30.97
2022-07-26T11:50:16.821Z,31.22
2022-07-26T11:51:27.876Z,31.57
2022-07-26T11:52:40.418Z,31.81
2022-07-26T11:53:46.994Z,31.93
2022-07-26T11:54:54.144Z,31.60
2022-07-26T11:56:04.938Z,31.54
2022-07-26T11:57:17.278Z,31.72
2022-07-26T11:58:24.187Z,32.00
2022-07-26T11:59:31.586Z,31.97
2022-07-26T12:00:35.755Z,32.22
2022-07-26T12:01:40.631Z,32.58
2022-07-26T12:02:51.423Z,32.30
2022-07-26T12:03:55.643Z,32.13
2022-07-26T12:05:21.470Z,32.04
2022-07-26T12:06:30.345Z,31.59
2022-07-26T12:07:34.084Z,31.22
2022-07-26T12:08:43.136Z,31.24
2022-07-26T12:09:51.122Z,31.14
2022-07-26T12:11:01.656Z,31.16
2022-07-26T12:13:39.722Z,31.44
2022-07-26T12:14:41.598Z,31.42
2022-07-26T12:15:51.737Z,31.21
2022-07-26T12:16:58.218Z,31.00
2022-07-26T12:18:02.436Z,31.07
2022-07-26T12:19:08.067Z,31.18
2022-07-26T12:20:19.484Z,31.38
2022-07-26T12:21:42.014Z,31.68
2022-07-26T12:22:57.751Z,31.81
2022-07-26T12:24:01.542Z,31.41
2022-07-26T12:25:06.530Z,30.94
2022-07-26T12:26:29.042Z,30.70
2022-07-26T12:27:34.455Z,30.71
2022-07-26T12:28:42.995Z,30.10
2022-07-26T12:31:01.481Z,30.54
2022-07-26T12:32:12.747Z,30.69
2022-07-26T12:33:16.858Z,30.88
2022-07-26T12:34:22.242Z,30.90
2022-07-26T12:35:34.179Z,30.83
2022-07-26T12:36:43.418Z,30.81
2022-07-26T12:37:52.540Z,30.58
2022-07-26T12:39:01.550Z,30.72
2022-07-26T12:40:16.361Z,30.61
2022-07-26T12:41:36.113Z,30.38
2022-07-26T12:42:45.757Z,30.37
2022-07-26T12:43:52.754Z,30.46
2022-07-26T12:44:57.757Z,30.61
2022-07-26T12:46:04.387Z,30.52
2022-07-26T12:47:09.926Z,30.71
2022-07-26T12:48:12.809Z,30.98
2022-07-26T12:49:19.146Z,30.91
2022-07-26T12:50:28.093Z,30.88
2022-07-26T12:51:31.011Z,30.85
2022-07-26T12:52:38.382Z,30.89
2022-07-26T12:53:43.594Z,30.82
2022-07-26T12:54:52.164Z,30.99
2022-07-26T12:55:57.143Z,31.29
2022-07-26T12:56:59.822Z,31.22
2022-07-26T12:58:07.349Z,31.01
2022-07-26T12:59:17.691Z,30.85
2022-07-26T13:00:22.600Z,31.38
2022-07-26T13:01:25.864Z,31.79
2022-07-26T13:02:29.032Z,31.68
2022-07-26T13:03:32.393Z,31.95
2022-07-26T13:04:36.717Z,31.69
2022-07-26T13:05:41.033Z,31.68
2022-07-26T13:06:45.729Z,31.63
2022-07-26T13:08:02.531Z,31.74
2022-07-26T13:09:07.931Z,31.71
2022-07-26T13:11:21.113Z,31.99
2022-07-26T13:12:25.373Z,31.92
2022-07-26T13:13:29.471Z,31.82
2022-07-26T13:14:42.272Z,31.67
2022-07-26T13:15:48.768Z,31.40
2022-07-26T13:16:54.228Z,31.24
2022-07-26T13:17:58.622Z,31.34
2022-07-26T13:19:02.464Z,31.13
2022-07-26T13:20:10.764Z,31.11
2022-07-26T13:21:15.441Z,31.00
2022-07-26T13:22:18.912Z,31.10
2022-07-26T13:23:26.039Z,31.31
2022-07-26T13:24:31.830Z,31.60
2022-07-26T13:25:39.616Z,31.48
2022-07-26T13:26:43.174Z,31.39
2022-07-26T13:27:45.893Z,31.30
2022-07-26T13:28:50.168Z,31.19
2022-07-26T13:29:54.393Z,31.00
2022-07-26T13:31:01.063Z,30.75
2022-07-26T13:32:06.702Z,30.62
2022-07-26T13:33:16.957Z,30.21
2022-07-26T13:34:23.137Z,30.04
2022-07-26T13:35:28.551Z,29.77
2022-07-26T13:36:33.005Z,29.58
2022-07-26T13:37:37.548Z,29.65
2022-07-26T13:38:43.247Z,29.79
2022-07-26T13:39:48.605Z,29.74
2022-07-26T13:40:53.722Z,29.73
2022-07-26T13:41:58.159Z,29.77
2022-07-26T13:43:02.080Z,29.94
2022-07-26T13:44:10.862Z,29.91
2022-07-26T13:45:15.513Z,29.94
2022-07-26T13:46:21.649Z,30.05
2022-07-26T13:47:24.454Z,29.97
2022-07-26T13:48:28.518Z,29.94
2022-07-26T13:49:31.543Z,29.95
2022-07-26T13:50:37.621Z,30.05
2022-07-26T13:52:01.150Z,30.04
2022-07-26T13:53:05.260Z,30.13
2022-07-26T13:54:10.119Z,30.36
2022-07-26T13:55:15.137Z,30.43
2022-07-26T13:56:20.494Z,30.55
2022-07-26T13:57:24.689Z,30.59
2022-07-26T13:58:32.330Z,30.49
2022-07-26T13:59:36.008Z,30.31
2022-07-26T14:00:42.854Z,30.47
2022-07-26T14:01:46.302Z,30.62
2022-07-26T14:02:51.156Z,30.70
2022-07-26T14:03:55.746Z,30.41
2022-07-26T14:04:59.473Z,30.56
2022-07-26T14:06:04.613Z,30.39
2022-07-26T14:07:09.632Z,30.59
2022-07-26T14:08:17.103Z,30.73
2022-07-26T14:09:21.966Z,30.68
2022-07-26T14:10:28.380Z,30.76
2022-07-26T14:11:34.382Z,30.85
2022-07-26T14:12:38.709Z,31.08
2022-07-26T14:13:46.298Z,31.19
2022-07-26T14:14:51.925Z,31.21
2022-07-26T14:15:58.892Z,31.36
2022-07-26T14:17:02.829Z,31.32
2022-07-26T14:18:06.718Z,31.33
2022-07-26T14:19:10.616Z,31.34
2022-07-26T14:20:17.790Z,31.36
2022-07-26T14:21:24.202Z,31.22
2022-07-26T14:22:31.318Z,31.05
2022-07-26T14:23:34.337Z,31.26
2022-07-26T14:24:39.128Z,31.24
2022-07-26T14:25:45.696Z,31.34
2022-07-26T14:26:53.119Z,31.43
2022-07-26T14:27:55.545Z,31.48
2022-07-26T14:28:59.020Z,31.14
2022-07-26T14:30:06.103Z,30.84
2022-07-26T14:31:10.247Z,30.74
2022-07-26T14:32:18.017Z,30.78
2022-07-26T14:33:19.818Z,30.88
2022-07-26T14:34:23.398Z,30.85
2022-07-26T14:35:36.616Z,30.88
2022-07-26T14:36:42.102Z,30.59
2022-07-26T14:37:46.130Z,30.48
2022-07-26T14:38:51.854Z,30.76
2022-07-26T14:39:56.834Z,31.00
2022-07-26T14:41:02.890Z,31.04
2022-07-26T14:42:08.313Z,30.76
2022-07-26T14:43:10.961Z,30.72
2022-07-26T14:44:18.202Z,30.33
2022-07-26T14:45:23.531Z,30.47
2022-07-26T14:46:30.623Z,30.61
2022-07-26T14:47:34.653Z,30.71
2022-07-26T14:48:54.126Z,30.53
2022-07-26T14:49:45.030Z,30.54
2022-07-26T14:51:08.543Z,30.38
2022-07-26T14:51:57.623Z,30.44
2022-07-26T14:53:06.696Z,30.58
2022-07-26T14:54:11.513Z,30.57
2022-07-26T14:55:20.354Z,30.57
2022-07-26T14:56:21.742Z,30.61
2022-07-26T14:57:26.454Z,30.48